地図

経路データ

SID SEASON NUMBER BASIN SUBBASIN NAME ISO_TIME NATURE LAT LON WMO_WIND WMO_PRES WMO_AGENCY TRACK_TYPE DIST2LAND LANDFALL IFLAG USA_AGENCY USA_ATCF_ID USA_LAT USA_LON USA_RECORD USA_STATUS USA_WIND USA_PRES USA_SSHS USA_R34_NE USA_R34_SE USA_R34_SW USA_R34_NW USA_R50_NE USA_R50_SE USA_R50_SW USA_R50_NW USA_R64_NE USA_R64_SE USA_R64_SW USA_R64_NW USA_POCI USA_ROCI USA_RMW USA_EYE TOKYO_LAT TOKYO_LON TOKYO_GRADE TOKYO_WIND TOKYO_PRES TOKYO_R50_DIR TOKYO_R50_LONG TOKYO_R50_SHORT TOKYO_R30_DIR TOKYO_R30_LONG TOKYO_R30_SHORT TOKYO_LAND CMA_LAT CMA_LON CMA_CAT CMA_WIND CMA_PRES HKO_LAT HKO_LON HKO_CAT HKO_WIND HKO_PRES NEWDELHI_LAT NEWDELHI_LON NEWDELHI_GRADE NEWDELHI_WIND NEWDELHI_PRES NEWDELHI_CI NEWDELHI_DP NEWDELHI_POCI REUNION_LAT REUNION_LON REUNION_TYPE REUNION_WIND REUNION_PRES REUNION_TNUM REUNION_CI REUNION_RMW REUNION_R34_NE REUNION_R34_SE REUNION_R34_SW REUNION_R34_NW REUNION_R50_NE REUNION_R50_SE REUNION_R50_SW REUNION_R50_NW REUNION_R64_NE REUNION_R64_SE REUNION_R64_SW REUNION_R64_NW BOM_LAT BOM_LON BOM_TYPE BOM_WIND BOM_PRES BOM_TNUM BOM_CI BOM_RMW BOM_R34_NE BOM_R34_SE BOM_R34_SW BOM_R34_NW BOM_R50_NE BOM_R50_SE BOM_R50_SW BOM_R50_NW BOM_R64_NE BOM_R64_SE BOM_R64_SW BOM_R64_NW BOM_ROCI BOM_POCI BOM_EYE BOM_POS_METHOD BOM_PRES_METHOD NADI_LAT NADI_LON NADI_CAT NADI_WIND NADI_PRES WELLINGTON_LAT WELLINGTON_LON WELLINGTON_WIND WELLINGTON_PRES DS824_LAT DS824_LON DS824_STAGE DS824_WIND DS824_PRES TD9636_LAT TD9636_LON TD9636_STAGE TD9636_WIND TD9636_PRES TD9635_LAT TD9635_LON TD9635_WIND TD9635_PRES TD9635_ROCI NEUMANN_LAT NEUMANN_LON NEUMANN_CLASS NEUMANN_WIND NEUMANN_PRES MLC_LAT MLC_LON MLC_CLASS MLC_WIND MLC_PRES USA_GUST BOM_GUST BOM_GUST_PER REUNION_GUST REUNION_GUST_PER USA_SEAHGT USA_SEARAD_NE USA_SEARAD_SE USA_SEARAD_SW USA_SEARAD_NW STORM_SPEED STORM_DIR
1937269N17094 1937 49 NI BB NOT_NAMED 1937-09-26 00:00:00 TS 16.5000 94.0000 main 31 31 _________O____ -1 16.5000 94.0000 TC 30 7 285
1937269N17094 1937 49 NI BB NOT_NAMED 1937-09-26 03:00:00 TS 16.5935 93.6384 main 75 75 _________PO___ -1 16.6402 93.4576 TC 30 16.5000 94.0000 1 9 286
1937269N17094 1937 49 NI BB NOT_NAMED 1937-09-26 06:00:00 TS 16.7487 93.1060 main 129 129 _________OP___ -1 16.8000 92.9000 TC 30 16.6718 93.4150 1 11 288
1937269N17094 1937 49 NI BB NOT_NAMED 1937-09-26 09:00:00 TS 16.9290 92.5487 main 196 196 _________PP___ -1 16.9925 92.3275 TC 30 16.8442 92.8436 1 11 290
1937269N17094 1937 49 NI BB NOT_NAMED 1937-09-26 12:00:00 TS 17.1097 92.0502 main 243 243 _________OP___ -1 17.2000 91.8000 TC 30 17.0194 92.3003 1 10 292
1937269N17094 1937 49 NI BB NOT_NAMED 1937-09-26 15:00:00 TS 17.2961 91.5887 main 292 292 _________PO___ -1 17.3923 91.3773 TC 30 17.2000 91.8000 1 9 295
1937269N17094 1937 49 NI BB NOT_NAMED 1937-09-26 18:00:00 TS 17.4948 91.1761 main 312 312 _________OP___ -1 17.6000 91.0000 TC 30 17.3896 91.3522 1 9 298
1937269N17094 1937 49 NI BB NOT_NAMED 1937-09-26 21:00:00 TS 17.7158 90.7770 main 338 338 _________PP___ -1 17.8349 90.6073 TC 30 17.5967 90.9466 1 9 302
1937269N17094 1937 49 NI BB NOT_NAMED 1937-09-27 00:00:00 TS 17.9652 90.3839 main 352 352 _________OP___ -1 18.1000 90.2000 TC 30 17.8304 90.5678 1 9 304
1937269N17094 1937 49 NI BB NOT_NAMED 1937-09-27 03:00:00 TS 18.2388 89.9675 main 368 350 _________PO___ -1 18.3776 89.7350 TC 30 18.1000 90.2000 1 10 306
1937269N17094 1937 49 NI BB NOT_NAMED 1937-09-27 06:00:00 TS 18.5470 89.5348 main 349 302 _________OP___ -1 18.7000 89.3000 TC 30 18.3940 89.7695 1 10 311
1937269N17094 1937 49 NI BB NOT_NAMED 1937-09-27 09:00:00 TS 18.9014 89.1504 main 302 252 _________PP___ -1 19.0774 88.9475 TC 30 18.7254 89.3533 1 10 319
1937269N17094 1937 49 NI BB NOT_NAMED 1937-09-27 12:00:00 TS 19.2970 88.8426 main 244 200 _________OP___ -1 19.5000 88.7000 TC 30 19.0941 88.9853 1 10 329
1937269N17094 1937 49 NI BB NOT_NAMED 1937-09-27 15:00:00 TS 19.7175 88.6311 main 200 156 _________PO___ -1 19.9349 88.5623 TC 38 19.5000 88.7000 1 10 341
1937269N17094 1937 49 NI BB NOT_NAMED 1937-09-27 18:00:00 TS 20.1896 88.5109 main 156 100 _________OP___ -1 20.4000 88.5000 TC 47 19.9792 88.5219 1 10 349
1937269N17094 1937 49 NI BB NOT_NAMED 1937-09-27 21:00:00 TS 20.7085 88.4284 main 100 44 _________PP___ -1 20.9300 88.4275 TC 55 20.4869 88.4292 1 10 354
1937269N17094 1937 49 NI BB NOT_NAMED 1937-09-28 00:00:00 TS 21.1881 88.3985 main 44 11 _________OP___ -1 21.4000 88.4000 TC 64 20.9762 88.3970 1 8 359
1937269N17094 1937 49 NI BB NOT_NAMED 1937-09-28 03:00:00 TS 21.5475 88.4212 main 11 0 _________PO___ -1 21.6950 88.4424 TC 64 21.4000 88.4000 4 6 5
1937269N17094 1937 49 NI BB NOT_NAMED 1937-09-28 06:00:00 TS 21.7984 88.4620 main 0 0 _________OP___ -1 21.9000 88.5000 TC 64 21.6968 88.4240 4 5 8
1937269N17094 1937 49 NI BB NOT_NAMED 1937-09-28 09:00:00 TS 22.0124 88.5008 main 0 0 _________PP___ -1 22.1000 88.5299 TC 64 21.9249 88.4716 4 4 5
1937269N17094 1937 49 NI BB NOT_NAMED 1937-09-28 12:00:00 TS 22.2078 88.5042 main 0 0 _________OP___ -1 22.3000 88.5000 TC 64 22.1155 88.5085 4 4 352
1937269N17094 1937 49 NI BB NOT_NAMED 1937-09-28 15:00:00 TS 22.4250 88.4363 main 0 0 _________PO___ -1 22.5500 88.3726 TC 55 22.3000 88.5000 4 5 338
1937269N17094 1937 49 NI BB NOT_NAMED 1937-09-28 18:00:00 TS 22.6625 88.3063 main 0 0 _________OP___ -1 22.8000 88.2000 TC 47 22.5250 88.4126 4 5 331
1937269N17094 1937 49 NI BB NOT_NAMED 1937-09-28 21:00:00 TS 22.8750 88.1662 main 0 0 _________PP___ -1 23.0000 88.0574 TC 38 22.7500 88.2751 4 5 326
1937269N17094 1937 49 NI BB NOT_NAMED 1937-09-29 00:00:00 TS 23.0875 88.0000 main 0 0 _________OP___ -1 23.2000 87.9000 TC 30 22.9750 88.1000 4 6 324
1937269N17094 1937 49 NI BB NOT_NAMED 1937-09-29 03:00:00 TS 23.3250 87.8075 main 0 0 _________PO___ -1 23.4500 87.7150 TC 30 23.2000 87.9000 1 6 322
1937269N17094 1937 49 NI BB NOT_NAMED 1937-09-29 06:00:00 TS 23.5666 87.5983 main 0 0 _________OP___ -1 23.7000 87.5000 TC 30 23.4332 87.6966 1 6 318
1937269N17094 1937 49 NI BB NOT_NAMED 1937-09-29 09:00:00 TS 23.7863 87.3613 main 0 0 _________PP___ -1 23.9075 87.2500 TC 30 23.6650 87.4726 1 6 314
1937269N17094 1937 49 NI BB NOT_NAMED 1937-09-29 12:00:00 TS 23.9947 87.1186 main 0 0 _________OP___ -1 24.1000 87.0000 TC 30 23.8894 87.2372 1 6 315
1937269N17094 1937 49 NI BB NOT_NAMED 1937-09-29 15:00:00 TS 24.2037 86.9000 main 0 0 _________PO___ -1 24.3074 86.7999 TC 30 24.1000 87.0000 1 5 315
1937269N17094 1937 49 NI BB NOT_NAMED 1937-09-29 18:00:00 TS 24.3815 86.6963 main 0 0 _________OP___ -1 24.5000 86.6000 TC 30 24.2926 86.7685 1 5 311
1937269N17094 1937 49 NI BB NOT_NAMED 1937-09-29 21:00:00 TS 24.5461 86.4707 main 0 0 _________PP___ -1 24.6601 86.3626 TC 30 24.4702 86.5427 1 5 307
1937269N17094 1937 49 NI BB NOT_NAMED 1937-09-30 00:00:00 TS 24.6918 86.2471 main 0 0 _________OP___ -1 24.8000 86.1000 TC 30 24.6377 86.3206 1 4 307
1937269N17094 1937 49 NI BB NOT_NAMED 1937-09-30 03:00:00 NR 24.8000 86.1000 main 0 __________O___ -1 TC 24.8000 86.1000 1 3 310

IBTrACS Databaseについて

本データベースは、米国NOAAが公開する1842年以降の世界の熱帯低気圧のベストトラックデータアーカイブInternational Best Track Archive for Climate Stewardship (IBTrACS)を、ウェブで閲覧しやすい形式に変換したものです。

最終更新日:2021-10-08